Airfield :
LOGIN :

Register | Disclaimer

   EN    FR    IT 

 










Legend :    VFR   Marginal VFR   IFR   Intensive IFR   Very Intensive IFR
Visi :
Ceiling :
>= 8 km
>= 3000ft
5 to 8 km
1000 to 3000 ft
1500m to 5 km
500 to 1000 ft
800 to 1500m
200 to 500 ft
< 800m
< 200 ft
Symbols :   Thunderstorms  Fog  Heavy snow  Heavy precipitations  Wind > 20 kt
SIGMETs :     Misc.  Thunderstorms  Icing  Turbulence  Mountain Waves  Volcanic Ashes







- Airport Elevation : 29 ft
- IATA code : SVG


ENZV - Sola

CURRENT METAR :
  • 210950Z 17020KT 9000 -RA FEW006 SCT015 BKN025 15/13 Q0976 NOSIG

EXPIRED METARs :
  • 210920Z 17018KT 9999 -RA SCT015 BKN040 16/14 Q0978 NOSIG
  • 210850Z 16018KT 9000 -RA FEW010 SCT015 BKN040 16/14 Q0978 TEMPO 4000 RA BKN014
  • 210820Z 17021G31KT 9999 -RA BKN012 16/14 Q0980 TEMPO 4000 RA BKN009
  • 210750Z 18025G39KT 6000 RA FEW005 BKN009 16/15 Q0980 TEMPO 4000 RA
  • 210720Z 17024G36KT 9999 -RA FEW006 BKN009 16/15 Q0980 TEMPO 4000 RA

TAF AMD TAF ENZV
Valid from the 21 at 08:00 until the 22 at 06:00 UTC


2108/2206 17020KT 9999 FEW012 BKN040
TEMPO 2108/2114 17028G40KT
TEMPO 2113/2117 SHRA BKN020CB
BECMG 2114/2117 32035G45KT
TEMPO 2116/2121 32045G58KT 4000 RADZ BKN010
PROB40
TEMPO 2119/2206 SHRA BKN020CB
BECMG 2203/2206 28022G35KT
No reported NOTAMs for that airfield.
2 SIGMETs reported for the Norway FIR (ENOR) :
 
Severe turbulence
ENOS SIGMET A01 VALID 211100/211400 ENMI
ENOR NORWAY FIR SEV TURB FCST WI N5750 E00730 - N5900 E00730 - N6000 E00930 - N6000 E01130 - N5900 E01150 - N5900 E01030 - N5750 E00730 SFC/4000FT STNR INTSF=
Severe turbulence
ENBD SIGMET D02 VALID 210730/211130 ENVN
ENOR NORWAY FIR SEV TURB FCST WI N6530 E01430 - N6510 E00620 - N6750 E01020 - N6740 E01630 - N6530 E01430 FL300/380 MOV NNE 15KT NC=



MET'MAP, your aeronautical weather chart ! - Copyright ORBIFLY December 2007 - Disclaimer

ORBIFLY MET'MAP TEAM :

Programming & Development : Alexandra Zaïnal
Concept & Development : Baudouin d'Aumeries
Co-Development & Prog : Marc-Olivier Méhu
Technical & hardware support : Manuel Goepfert

Contact : metmap@orbifly.com




SOURCES & CREDITS :

   NOAA